• Join FlightAware (Why Join?)
  • Login
  • US Flag 
08:16PM EDT


 

Airport Tracker/Info


-or-


 

Live Flight TrackerFlight Track Log ✈ ASQ5685 ✈ 20-Apr-2013 ✈ KBTV - KIAD

Flight Track Log - Related Links

Times and Time Zones

All times are in EDT time to prevent confusion due to time zone crossing. See the ASQ5685 flight status page for this flight to view local times or setup timezone preferences in your user account.

Time Position Orientation Groundspeed Altitude Reporting Facility
EDT Latitude Longitude Course Direction KTS MPH feet Rate Location/Type
02:46PM 44.5542 -73.2792 196° South 236 272 7,100  Level Boston Center
02:47PM 44.2334 -73.2333 180° South  Level FlightAware Approximate
02:47PM 44.5058 -73.3278 216° Southwest 178 205 9,300  Level Boston Center
02:48PM 44.1559 -73.2643 196° South  Level FlightAware Approximate
02:48PM 44.4328 -73.3414 188° South 188 216 11,300  Level Boston Center
02:49PM 44.0785 -73.2953 196° South  Level FlightAware Approximate
02:49PM 44.3536 -73.3606 190° South 249 287 13,200  Level Boston Center
02:50PM 44.0010 -73.3263 196° South  Level FlightAware Approximate
02:50PM 44.2700 -73.3853 192° South 299 344 15,300  Level Boston Center
02:51PM 43.9236 -73.3573 196° South  Level FlightAware Approximate
02:51PM 44.1906 -73.4072 191° South 317 365 17,300  Level Boston Center
02:52PM 44.1050 -73.4317 192° South 317 365 19,600 2,100 Climbing Boston Center
02:53PM 44.0256 -73.4536 191° South 312 359 21,500 1,500 Climbing Boston Center
02:54PM 43.9442 -73.4753 191° South 306 352 22,700 1,020 Climbing Boston Center
02:55PM 43.8625 -73.4997 192° South 300 345 23,600 900 Climbing Boston Center
02:56PM 43.7750 -73.5242 191° South 305 351 24,500 900 Climbing Boston Center
02:57PM 43.6914 -73.5483 192° South 310 357 25,500 900 Climbing Boston Center
02:58PM 43.6036 -73.5697 190° South 315 362 26,300 600 Climbing Boston Center
02:59PM 43.5219 -73.5911 191° South 315 362 26,800 480 Climbing Boston Center
03:00PM 43.4364 -73.6125 190° South 315 362 27,300 480 Climbing Boston Center
03:01PM 43.3506 -73.6392 193° South 315 362 27,800 300 Climbing Boston Center
03:02PM 43.2650 -73.6606 190° South 315 362 28,000 60 Climbing Boston Center
03:03PM 43.1772 -73.6872 192° South 315 362 28,000  Level Boston Center
03:04PM 43.0622 -73.7189 191° South 325 374 28,000  Level Boston Center
03:05PM 42.9722 -73.7453 192° South 325 374 28,000  Level Boston Center
03:06PM 42.8825 -73.7689 191° South 330 380 28,000  Level Boston Center
03:07PM 42.7925 -73.7925 191° South 330 380 28,000  Level Boston Center
03:08PM 42.7067 -73.8244 195° South 335 386 28,000  Level Boston Center
03:09PM 42.6186 -73.8650 199° South 335 386 28,000  Level Boston Center
03:10PM 42.5431 -73.8997 199° South 330 380 28,000  Level Boston Center
03:11PM 42.4550 -73.9372 197° South 325 374 28,000  Level Boston Center
03:12PM 42.3714 -73.9744 198° South 325 374 28,000  Level Boston Center
03:13PM 42.2853 -74.0144 199° South 325 374 28,000  Level Boston Center
03:14PM 42.1994 -74.0375 191° South 325 374 28,000  Level Boston Center
03:15PM 42.1036 -74.0433 183° South 325 374 28,000  Level Boston Center
03:16PM 42.0097 -74.0494 183° South 336 387 28,000  Level Boston Center
03:17PM 41.9200 -74.0556 183° South 336 387 28,000  Level Boston Center
03:18PM 41.8261 -74.0589 182° South 336 387 28,000  Level Boston Center
03:20PM 41.6800 -74.0650 182° South 349 402 28,000  Level New York Center
03:21PM 41.5778 -74.0711 183° South 349 402 28,000  Level New York Center
03:22PM 41.4983 -74.0783 184° South 337 388 28,000  Level New York Center
03:23PM 41.4028 -74.0792 180° South 337 388 28,000  Level New York Center
03:24PM 41.3108 -74.0856 183° South 342 394 28,000  Level New York Center
03:25PM 41.2169 -74.0892 182° South 342 394 28,000  Level New York Center
03:26PM 41.1286 -74.1181 194° South 337 388 28,000  Level New York Center
03:27PM 41.0822 -74.2175 238° Southwest 295 339 28,000  Level New York Center
03:28PM 41.0375 -74.3142 238° Southwest 302 348 28,000  Level New York Center
03:29PM 40.9931 -74.4136 239° Southwest 313 360 28,000  Level New York Center
03:30PM 40.9422 -74.5069 234° Southwest 318 366 28,000  Level New York Center
03:31PM 40.8992 -74.6089 241° Southwest 318 366 28,000  Level New York Center
03:32PM 40.8644 -74.7167 247° West 318 366 28,000 -420 Level New York Center
03:33PM 40.8317 -74.8244 248° West 318 366 27,200 -840 Descending New York Center
03:34PM 40.8008 -74.9269 248° West 312 359 26,400 -840 Descending New York Center
03:35PM 40.7656 -75.0397 248° West 312 359 25,600 -840 Descending New York Center
03:36PM 40.7303 -75.1497 247° West 318 366 24,800 -960 Descending New York Center
03:37PM 40.6969 -75.2653 249° West 331 381 23,700 -1,080 Descending New York Center
03:38PM 40.6614 -75.3725 246° West 331 381 22,700 -960 Descending New York Center
03:39PM 40.6100 -75.4647 234° Southwest 320 368 21,800 -960 Descending New York Center
03:40PM 40.5564 -75.5567 233° Southwest 320 368 20,800 -900 Descending New York Center
03:41PM 40.5003 -75.6483 231° Southwest 325 374 20,000 -420 Descending New York Center
03:42PM 40.4464 -75.7428 233° Southwest 330 380 20,000  Level New York Center
03:43PM 40.3925 -75.8342 232° Southwest 330 380 20,000  Level New York Center
03:44PM 40.3344 -75.9253 230° Southwest 324 373 20,000  Level New York Center
03:45PM 40.2803 -76.0164 232° Southwest 330 380 20,000  Level New York Center
03:46PM 40.2261 -76.1075 232° Southwest 330 380 20,000 -240 Level New York Center
03:47PM 40.1653 -76.2089 232° Southwest 330 380 19,600 -900 Descending New York Center
03:48PM 40.1175 -76.2975 235° Southwest 325 374 18,300 -840 Descending New York Center
03:49PM 40.0733 -76.3917 239° Southwest 320 368 18,000 -780 Descending New York Center
03:51PM 39.9667 -76.6000 236° Southwest 317 365 16,000 -960 Descending Potomac TRACON
03:52PM 39.9333 -76.7000 247° West 312 359 15,000 -480 Descending Potomac TRACON
03:53PM 39.8833 -76.8000 237° Southwest 310 357 15,100  Climbing Potomac TRACON
03:54PM 39.8500 -76.8833 243° Southwest 306 352 15,100 -360 Level Potomac TRACON
03:55PM 39.8000 -76.9833 237° Southwest 307 353 14,400 -960 Descending Potomac TRACON
03:56PM 39.7500 -77.0833 237° Southwest 312 359 13,200 -1,020 Descending Potomac TRACON
03:57PM 39.7000 -77.1667 232° Southwest 308 354 12,400 -1,140 Descending Potomac TRACON
03:58PM 39.6667 -77.2667 247° West 305 351 11,100 -1,320 Descending Potomac TRACON
03:59PM 39.6000 -77.3167 210° Southwest 285 328 10,000 -1,140 Descending Potomac TRACON
04:00PM 39.5167 -77.3333 189° South 280 322 8,800 -1,080 Descending Potomac TRACON
04:01PM 39.4500 -77.3333 180° South 272 313 7,800 -1,080 Descending Potomac TRACON
04:02PM 39.3667 -77.3500 189° South 277 319 6,700 -1,140 Descending Potomac TRACON
04:03PM 39.3000 -77.3500 180° South 265 305 5,700 -1,080 Descending Potomac TRACON
04:04PM 39.2333 -77.3500 180° South 268 308 4,700 -900 Descending Potomac TRACON
04:05PM 39.1500 -77.3500 180° South 271 312 4,000 -360 Descending Potomac TRACON
04:06PM 39.0833 -77.3500 180° South 271 312 4,000  Level Potomac TRACON
04:07PM 39.0000 -77.3500 180° South 262 302 4,100  Climbing Potomac TRACON
04:08PM 38.9333 -77.3500 180° South 273 314 4,000 -240 Descending Potomac TRACON
04:09PM 38.8667 -77.3667 191° South 259 298 3,700 -480 Descending Potomac TRACON
04:10PM 38.8000 -77.3667 180° South 231 266 3,100 -420 Descending Potomac TRACON
04:11PM 38.7500 -77.3833 195° South 193 222 3,000 -60 Descending Potomac TRACON
04:12PM 38.7667 -77.4333 293° West 183 211 3,000 -540 Level Potomac TRACON
04:13PM 38.8167 -77.4333 360° North 176 203 2,000 -1,020 Descending Potomac TRACON